createdAt,value
2023-03-22T00:01:24.737Z,100.00
2023-03-22T00:03:52.170Z,100.00
2023-03-22T00:06:19.019Z,100.00
2023-03-22T00:08:49.315Z,100.00
2023-03-22T00:11:16.200Z,100.00
2023-03-22T00:13:44.111Z,100.00
2023-03-22T00:16:10.941Z,100.00
2023-03-22T00:18:37.604Z,100.00
2023-03-22T00:21:04.949Z,100.00
2023-03-22T00:23:31.833Z,100.00
2023-03-22T00:25:58.439Z,100.00
2023-03-22T00:28:25.017Z,100.00
2023-03-22T00:30:55.514Z,100.00
2023-03-22T00:33:22.811Z,100.00
2023-03-22T00:35:51.371Z,100.00
2023-03-22T00:38:18.001Z,100.00
2023-03-22T00:40:44.834Z,100.00
2023-03-22T00:43:11.507Z,100.00
2023-03-22T00:45:38.092Z,100.00
2023-03-22T00:48:06.967Z,100.00
2023-03-22T00:50:33.677Z,100.00
2023-03-22T00:53:00.252Z,100.00
2023-03-22T00:55:26.911Z,100.00
2023-03-22T00:57:53.606Z,100.00
2023-03-22T01:00:20.548Z,100.00
2023-03-22T01:02:47.205Z,100.00
2023-03-22T01:05:20.056Z,100.00
2023-03-22T01:07:46.654Z,100.00
2023-03-22T01:10:13.300Z,100.00
2023-03-22T01:12:39.955Z,100.00
2023-03-22T01:15:07.877Z,100.00
2023-03-22T01:17:34.652Z,100.00
2023-03-22T01:20:01.250Z,100.00
2023-03-22T01:22:30.128Z,100.00
2023-03-22T01:24:57.087Z,100.00
2023-03-22T01:27:23.634Z,100.00
2023-03-22T01:29:50.167Z,100.00
2023-03-22T01:32:17.102Z,100.00
2023-03-22T01:34:43.673Z,100.00
2023-03-22T01:37:10.435Z,100.00
2023-03-22T01:39:44.866Z,100.00
2023-03-22T01:42:14.521Z,100.00
2023-03-22T01:44:42.566Z,100.00
2023-03-22T01:47:10.358Z,100.00
2023-03-22T01:49:38.165Z,100.00
2023-03-22T01:52:08.860Z,100.00
2023-03-22T01:54:59.933Z,100.00
2023-03-22T01:57:41.222Z,100.00
2023-03-22T02:00:13.648Z,100.00
2023-03-22T02:02:40.427Z,100.00
2023-03-22T02:05:20.406Z,100.00
2023-03-22T02:07:47.197Z,100.00
2023-03-22T02:10:18.879Z,100.00
2023-03-22T02:13:12.808Z,100.00
2023-03-22T02:16:07.292Z,100.00
2023-03-22T02:18:59.805Z,100.00
2023-03-22T02:21:59.602Z,100.00
2023-03-22T02:24:41.303Z,100.00
2023-03-22T02:27:39.065Z,100.00
2023-03-22T02:30:32.262Z,100.00
2023-03-22T02:33:25.997Z,100.00
2023-03-22T02:36:14.992Z,100.00
2023-03-22T02:39:07.727Z,100.00
2023-03-22T02:41:47.518Z,100.00
2023-03-22T02:44:23.775Z,100.00
2023-03-22T02:46:58.294Z,100.00
2023-03-22T02:49:33.106Z,100.00
2023-03-22T02:52:03.544Z,100.00
2023-03-22T02:54:40.083Z,100.00
2023-03-22T02:57:11.609Z,100.00
2023-03-22T02:59:40.808Z,100.00
2023-03-22T03:02:11.112Z,100.00
2023-03-22T03:04:43.517Z,100.00
2023-03-22T03:07:13.872Z,100.00
2023-03-22T03:09:42.491Z,100.00
2023-03-22T03:12:15.962Z,100.00
2023-03-22T03:14:42.728Z,100.00
2023-03-22T03:17:26.884Z,100.00
2023-03-22T03:20:05.603Z,100.00
2023-03-22T03:22:45.509Z,100.00
2023-03-22T03:25:23.999Z,100.00
2023-03-22T03:27:58.486Z,100.00
2023-03-22T03:30:32.049Z,100.00
2023-03-22T03:33:05.078Z,100.00
2023-03-22T03:35:36.444Z,100.00
2023-03-22T03:38:08.346Z,100.00
2023-03-22T03:40:40.681Z,100.00
2023-03-22T03:43:09.176Z,100.00
2023-03-22T03:45:37.461Z,100.00
2023-03-22T03:48:09.095Z,100.00
2023-03-22T03:50:38.377Z,100.00
2023-03-22T03:53:05.348Z,100.00
2023-03-22T03:55:33.229Z,100.00
2023-03-22T03:58:01.107Z,100.00
2023-03-22T04:00:27.919Z,100.00
2023-03-22T04:03:17.798Z,100.00
2023-03-22T04:06:02.920Z,100.00
2023-03-22T04:08:33.757Z,100.00
2023-03-22T04:11:00.656Z,100.00
2023-03-22T04:13:29.731Z,100.00
2023-03-22T04:15:59.375Z,100.00
2023-03-22T04:18:25.937Z,100.00
2023-03-22T04:20:52.526Z,100.00
2023-03-22T04:23:20.667Z,100.00
2023-03-22T04:25:47.206Z,100.00
2023-03-22T04:28:13.759Z,100.00
2023-03-22T04:30:42.183Z,100.00
2023-03-22T04:33:27.853Z,100.00
2023-03-22T04:36:14.631Z,100.00
2023-03-22T04:38:52.158Z,100.00
2023-03-22T04:41:23.065Z,100.00
2023-03-22T04:43:52.139Z,100.00
2023-03-22T04:46:20.453Z,100.00
2023-03-22T04:48:52.988Z,100.00
2023-03-22T04:51:21.049Z,100.00
2023-03-22T04:54:12.489Z,100.00
2023-03-22T04:56:41.382Z,100.00
2023-03-22T04:59:07.888Z,100.00
2023-03-22T05:01:35.863Z,100.00
2023-03-22T05:04:17.220Z,100.00
2023-03-22T05:06:44.905Z,100.00
2023-03-22T05:09:17.810Z,100.00
2023-03-22T05:11:46.038Z,100.00
2023-03-22T05:14:25.656Z,100.00
2023-03-22T05:16:54.109Z,100.00
2023-03-22T05:19:20.974Z,100.00
2023-03-22T05:21:48.398Z,100.00
2023-03-22T05:24:15.477Z,100.00
2023-03-22T05:26:46.356Z,100.00
2023-03-22T05:29:13.675Z,100.00
2023-03-22T05:32:02.934Z,100.00
2023-03-22T05:34:29.840Z,100.00
2023-03-22T05:36:56.488Z,100.00
2023-03-22T05:39:30.010Z,100.00
2023-03-22T05:41:57.706Z,100.00
2023-03-22T05:44:24.272Z,100.00
2023-03-22T05:47:02.207Z,100.00
2023-03-22T05:49:39.270Z,100.00
2023-03-22T05:52:06.972Z,100.00
2023-03-22T05:54:57.580Z,100.00
2023-03-22T05:57:24.280Z,100.00
2023-03-22T05:59:50.882Z,100.00
2023-03-22T06:02:25.533Z,100.00
2023-03-22T06:04:52.192Z,100.00
2023-03-22T06:07:20.456Z,100.00
2023-03-22T06:09:52.093Z,100.00
2023-03-22T06:12:22.100Z,100.00
2023-03-22T06:14:52.537Z,100.00
2023-03-22T06:17:31.351Z,100.00
2023-03-22T06:19:58.287Z,100.00
2023-03-22T06:22:24.892Z,100.00
2023-03-22T06:24:52.274Z,100.00
2023-03-22T06:27:29.138Z,100.00
2023-03-22T06:29:55.808Z,100.00
2023-03-22T06:32:25.411Z,100.00
2023-03-22T06:34:53.994Z,100.00
2023-03-22T06:37:23.190Z,100.00
2023-03-22T06:39:50.154Z,100.00
2023-03-22T06:42:17.128Z,100.00
2023-03-22T06:44:47.210Z,100.00
2023-03-22T06:47:25.682Z,100.00
2023-03-22T06:50:14.079Z,100.00
2023-03-22T06:53:01.080Z,100.00
2023-03-22T06:55:27.758Z,100.00
2023-03-22T06:57:55.058Z,100.00
2023-03-22T07:00:22.176Z,100.00
2023-03-22T07:02:50.859Z,100.00
2023-03-22T07:05:28.956Z,100.00
2023-03-22T07:07:55.641Z,100.00
2023-03-22T07:10:22.500Z,100.00
2023-03-22T07:12:50.304Z,100.00
2023-03-22T07:15:17.399Z,100.00
2023-03-22T07:18:07.301Z,100.00
2023-03-22T07:20:36.152Z,100.00
2023-03-22T07:23:02.810Z,100.00
2023-03-22T07:25:33.396Z,100.00
2023-03-22T07:28:13.845Z,100.00
2023-03-22T07:30:41.922Z,100.00
2023-03-22T07:33:10.301Z,100.00
2023-03-22T07:35:39.693Z,100.00
2023-03-22T07:38:06.491Z,100.00
2023-03-22T07:40:33.908Z,100.00
2023-03-22T07:43:00.557Z,100.00
2023-03-22T07:45:48.477Z,100.00
2023-03-22T07:48:33.522Z,100.00
2023-03-22T07:51:33.845Z,100.00
2023-03-22T07:54:01.132Z,100.00
2023-03-22T07:56:27.676Z,100.00
2023-03-22T07:58:54.573Z,100.00
2023-03-22T08:01:21.138Z,100.00
2023-03-22T08:04:08.106Z,100.00
2023-03-22T08:07:05.092Z,100.00
2023-03-22T08:09:31.790Z,100.00
2023-03-22T08:11:58.488Z,95.75
2023-03-22T08:14:35.908Z,93.76
2023-03-22T08:17:05.880Z,94.38
2023-03-22T08:19:33.350Z,82.99
2023-03-22T08:22:00.150Z,80.40
2023-03-22T08:24:50.370Z,78.12
2023-03-22T08:27:26.858Z,73.55
2023-03-22T08:29:54.644Z,74.79
2023-03-22T08:32:21.352Z,72.96
2023-03-22T08:34:48.483Z,74.20
2023-03-22T08:37:15.042Z,74.20
2023-03-22T08:39:44.143Z,69.25
2023-03-22T08:42:24.272Z,69.04
2023-03-22T08:44:51.202Z,69.33
2023-03-22T08:47:19.304Z,69.16
2023-03-22T08:49:49.663Z,67.20
2023-03-22T08:52:23.012Z,67.14
2023-03-22T08:54:56.696Z,65.23
2023-03-22T08:57:43.791Z,66.29
2023-03-22T09:00:27.605Z,63.44
2023-03-22T09:03:01.403Z,63.71
2023-03-22T09:05:28.065Z,64.94
2023-03-22T09:07:55.682Z,62.04
2023-03-22T09:10:37.679Z,61.77
2023-03-22T09:13:06.117Z,62.21
2023-03-22T09:15:33.297Z,62.43
2023-03-22T09:18:15.047Z,60.09
2023-03-22T09:20:45.534Z,60.05
2023-03-22T09:23:13.911Z,59.25
2023-03-22T09:25:42.969Z,60.35
2023-03-22T09:28:11.047Z,57.78
2023-03-22T09:30:38.368Z,58.74
2023-03-22T09:33:08.113Z,57.71
2023-03-22T09:35:40.667Z,57.52
2023-03-22T09:38:10.200Z,56.85
2023-03-22T09:40:43.664Z,56.51
2023-03-22T09:43:14.969Z,56.77
2023-03-22T09:45:46.338Z,55.84
2023-03-22T09:48:18.386Z,56.39
2023-03-22T09:50:48.192Z,56.07
2023-03-22T09:53:17.167Z,55.82
2023-03-22T09:55:50.323Z,56.03
2023-03-22T09:58:24.877Z,56.76
2023-03-22T10:00:57.764Z,55.35
2023-03-22T10:03:38.167Z,54.67
2023-03-22T10:06:09.717Z,54.68
2023-03-22T10:08:53.050Z,55.42
2023-03-22T10:11:25.335Z,54.45
2023-03-22T10:14:09.388Z,55.48
2023-03-22T10:16:36.284Z,54.08
2023-03-22T10:19:07.973Z,54.48
2023-03-22T10:21:35.509Z,54.04
2023-03-22T10:24:09.131Z,54.89
2023-03-22T10:29:29.846Z,53.09
2023-03-22T10:32:11.763Z,53.68
2023-03-22T10:34:38.445Z,54.08
2023-03-22T10:37:06.370Z,54.42
2023-03-22T10:39:41.112Z,53.07
2023-03-22T10:42:13.286Z,53.54
2023-03-22T10:44:47.700Z,53.34
2023-03-22T10:47:18.621Z,52.26
2023-03-22T10:49:49.795Z,53.19
2023-03-22T10:52:33.432Z,51.94
2023-03-22T10:55:04.195Z,52.26
2023-03-22T10:57:31.166Z,52.32
2023-03-22T10:59:59.202Z,51.23
2023-03-22T11:02:27.704Z,50.75
2023-03-22T11:04:56.084Z,50.74
2023-03-22T11:07:33.166Z,50.56
2023-03-22T11:10:12.515Z,49.83
2023-03-22T11:12:43.668Z,51.08
2023-03-22T11:15:22.427Z,50.98
2023-03-22T11:17:49.478Z,49.30
2023-03-22T11:20:17.451Z,50.22
2023-03-22T11:22:46.341Z,49.27
2023-03-22T11:25:15.738Z,48.88
2023-03-22T11:27:51.633Z,50.39
2023-03-22T11:30:22.749Z,48.86
2023-03-22T11:32:59.428Z,49.32
2023-03-22T11:35:26.571Z,48.33
2023-03-22T11:37:55.416Z,48.95
2023-03-22T11:40:24.040Z,48.58
2023-03-22T11:42:54.164Z,49.77
2023-03-22T11:45:26.853Z,47.53
2023-03-22T11:47:54.636Z,48.21
2023-03-22T11:50:27.762Z,47.92
2023-03-22T11:52:54.729Z,47.73
2023-03-22T11:55:21.345Z,47.82
2023-03-22T11:57:47.961Z,49.08
2023-03-22T12:00:20.344Z,48.64
2023-03-22T12:02:52.790Z,48.01
2023-03-22T12:05:22.402Z,48.57
2023-03-22T12:07:53.335Z,48.78
2023-03-22T12:10:26.255Z,48.38
2023-03-22T12:12:56.057Z,46.52
2023-03-22T12:15:24.112Z,47.20
2023-03-22T12:17:58.401Z,48.04
2023-03-22T12:20:35.236Z,47.90
2023-03-22T12:23:02.717Z,47.44
2023-03-22T12:25:32.960Z,47.21
2023-03-22T12:28:03.309Z,47.32
2023-03-22T12:30:33.879Z,48.52
2023-03-22T12:33:06.036Z,48.09
2023-03-22T12:35:36.020Z,48.22
2023-03-22T12:38:23.155Z,49.37
2023-03-22T12:40:51.325Z,48.74
2023-03-22T12:43:34.534Z,48.06
2023-03-22T12:46:03.330Z,47.93
2023-03-22T12:48:38.627Z,49.17
2023-03-22T12:51:07.019Z,48.02
2023-03-22T12:53:35.402Z,48.85
2023-03-22T12:56:02.667Z,48.39
2023-03-22T12:58:29.260Z,48.60
2023-03-22T13:00:59.007Z,48.19
2023-03-22T13:03:28.542Z,48.78
2023-03-22T13:06:05.705Z,48.90
2023-03-22T13:09:10.561Z,49.46
2023-03-22T13:11:37.319Z,49.02
2023-03-22T13:14:03.921Z,50.08
2023-03-22T13:16:51.346Z,50.24
2023-03-22T13:19:35.200Z,50.37
2023-03-22T13:22:21.683Z,49.45
2023-03-22T13:24:59.412Z,50.31
2023-03-22T13:27:34.684Z,50.88
2023-03-22T13:30:01.689Z,51.64
2023-03-22T13:32:30.616Z,50.89
2023-03-22T13:34:57.527Z,52.36
2023-03-22T13:37:32.636Z,52.27
2023-03-22T13:39:59.428Z,53.00
2023-03-22T13:42:34.888Z,55.31
2023-03-22T13:45:01.927Z,54.43
2023-03-22T13:47:36.065Z,54.62
2023-03-22T13:50:11.228Z,54.87
2023-03-22T13:52:42.661Z,55.63
2023-03-22T13:55:41.361Z,56.05
2023-03-22T13:58:11.118Z,55.24
2023-03-22T14:00:55.479Z,55.99
2023-03-22T14:03:29.890Z,55.30
2023-03-22T14:06:13.484Z,54.63
2023-03-22T14:08:45.795Z,55.83
2023-03-22T14:11:24.052Z,55.22
2023-03-22T14:13:53.804Z,54.22
2023-03-22T14:16:33.701Z,54.57
2023-03-22T14:19:00.806Z,54.31
2023-03-22T14:21:35.360Z,54.39
